sensor_id;sensor_type;location;lat;lon;timestamp;P1;durP1;ratioP1;P2;durP2;ratioP2
27025;SDS011;14565;48.626;8.978;2022-10-23T00:01:58;8.77;;;2.88;;
27025;SDS011;14565;48.626;8.978;2022-10-23T00:04:26;7.15;;;3.20;;
27025;SDS011;14565;48.626;8.978;2022-10-23T00:06:52;11.25;;;2.88;;
27025;SDS011;14565;48.626;8.978;2022-10-23T00:09:20;8.30;;;3.15;;
27025;SDS011;14565;48.626;8.978;2022-10-23T00:11:47;9.00;;;3.08;;
27025;SDS011;14565;48.626;8.978;2022-10-23T00:14:15;6.53;;;3.08;;
27025;SDS011;14565;48.626;8.978;2022-10-23T00:16:42;10.95;;;3.92;;
27025;SDS011;14565;48.626;8.978;2022-10-23T00:19:09;10.85;;;3.53;;
27025;SDS011;14565;48.626;8.978;2022-10-23T00:21:35;8.43;;;3.35;;
27025;SDS011;14565;48.626;8.978;2022-10-23T00:24:01;7.03;;;2.90;;
27025;SDS011;14565;48.626;8.978;2022-10-23T00:26:26;9.90;;;3.08;;
27025;SDS011;14565;48.626;8.978;2022-10-23T00:28:53;5.00;;;2.85;;
27025;SDS011;14565;48.626;8.978;2022-10-23T00:31:19;8.75;;;3.58;;
27025;SDS011;14565;48.626;8.978;2022-10-23T00:33:46;8.77;;;3.28;;
27025;SDS011;14565;48.626;8.978;2022-10-23T00:36:13;6.75;;;3.00;;
27025;SDS011;14565;48.626;8.978;2022-10-23T00:38:40;7.60;;;3.55;;
27025;SDS011;14565;48.626;8.978;2022-10-23T00:41:07;6.97;;;3.42;;
27025;SDS011;14565;48.626;8.978;2022-10-23T00:43:53;6.90;;;3.17;;
27025;SDS011;14565;48.626;8.978;2022-10-23T00:46:35;8.52;;;3.63;;
27025;SDS011;14565;48.626;8.978;2022-10-23T00:49:03;8.57;;;3.83;;
27025;SDS011;14565;48.626;8.978;2022-10-23T00:51:33;5.57;;;3.55;;
27025;SDS011;14565;48.626;8.978;2022-10-23T00:54:37;7.45;;;3.45;;
27025;SDS011;14565;48.626;8.978;2022-10-23T00:57:06;5.38;;;3.25;;
27025;SDS011;14565;48.626;8.978;2022-10-23T00:59:37;6.07;;;3.35;;
27025;SDS011;14565;48.626;8.978;2022-10-23T01:02:03;6.43;;;3.10;;
27025;SDS011;14565;48.626;8.978;2022-10-23T01:04:29;6.80;;;3.42;;
27025;SDS011;14565;48.626;8.978;2022-10-23T01:15:00;8.25;;;3.08;;
27025;SDS011;14565;48.626;8.978;2022-10-23T01:18:03;8.50;;;2.95;;
27025;SDS011;14565;48.626;8.978;2022-10-23T01:20:49;9.13;;;3.05;;
27025;SDS011;14565;48.626;8.978;2022-10-23T01:34:20;6.22;;;3.25;;
27025;SDS011;14565;48.626;8.978;2022-10-23T01:36:50;8.07;;;2.88;;
27025;SDS011;14565;48.626;8.978;2022-10-23T01:39:21;8.65;;;2.95;;
27025;SDS011;14565;48.626;8.978;2022-10-23T01:41:54;5.03;;;3.13;;
27025;SDS011;14565;48.626;8.978;2022-10-23T01:46:55;10.30;;;3.22;;
27025;SDS011;14565;48.626;8.978;2022-10-23T01:49:23;6.80;;;2.90;;
27025;SDS011;14565;48.626;8.978;2022-10-23T01:51:50;6.32;;;3.17;;
27025;SDS011;14565;48.626;8.978;2022-10-23T01:54:22;5.20;;;2.67;;
27025;SDS011;14565;48.626;8.978;2022-10-23T01:56:51;7.82;;;2.75;;
27025;SDS011;14565;48.626;8.978;2022-10-23T01:59:21;7.15;;;3.00;;
27025;SDS011;14565;48.626;8.978;2022-10-23T02:01:51;9.95;;;2.92;;
27025;SDS011;14565;48.626;8.978;2022-10-23T02:04:22;8.70;;;3.03;;
27025;SDS011;14565;48.626;8.978;2022-10-23T02:06:55;7.68;;;3.30;;
27025;SDS011;14565;48.626;8.978;2022-10-23T02:09:21;3.63;;;2.50;;
27025;SDS011;14565;48.626;8.978;2022-10-23T02:11:49;5.25;;;2.47;;
27025;SDS011;14565;48.626;8.978;2022-10-23T02:16:57;9.52;;;3.05;;
27025;SDS011;14565;48.626;8.978;2022-10-23T02:19:40;4.40;;;2.65;;
27025;SDS011;14565;48.626;8.978;2022-10-23T02:22:16;4.65;;;2.75;;
27025;SDS011;14565;48.626;8.978;2022-10-23T02:24:49;6.25;;;3.25;;
27025;SDS011;14565;48.626;8.978;2022-10-23T02:27:39;5.15;;;3.17;;
27025;SDS011;14565;48.626;8.978;2022-10-23T02:30:09;5.10;;;3.13;;
27025;SDS011;14565;48.626;8.978;2022-10-23T02:32:39;6.20;;;3.33;;
27025;SDS011;14565;48.626;8.978;2022-10-23T02:35:08;5.22;;;3.33;;
27025;SDS011;14565;48.626;8.978;2022-10-23T02:37:35;6.38;;;2.92;;
27025;SDS011;14565;48.626;8.978;2022-10-23T02:40:00;5.13;;;3.63;;
27025;SDS011;14565;48.626;8.978;2022-10-23T02:50:48;9.25;;;4.07;;
27025;SDS011;14565;48.626;8.978;2022-10-23T02:53:28;6.13;;;3.90;;
27025;SDS011;14565;48.626;8.978;2022-10-23T03:01:28;5.70;;;3.53;;
27025;SDS011;14565;48.626;8.978;2022-10-23T03:04:06;7.53;;;3.20;;
27025;SDS011;14565;48.626;8.978;2022-10-23T03:06:35;5.93;;;3.08;;
27025;SDS011;14565;48.626;8.978;2022-10-23T03:09:02;8.15;;;2.80;;
27025;SDS011;14565;48.626;8.978;2022-10-23T03:11:30;4.93;;;3.28;;
27025;SDS011;14565;48.626;8.978;2022-10-23T03:13:56;11.63;;;3.00;;
27025;SDS011;14565;48.626;8.978;2022-10-23T03:16:22;9.70;;;3.13;;
27025;SDS011;14565;48.626;8.978;2022-10-23T03:18:48;9.88;;;2.90;;
27025;SDS011;14565;48.626;8.978;2022-10-23T03:21:14;7.65;;;2.60;;
27025;SDS011;14565;48.626;8.978;2022-10-23T03:23:40;7.55;;;3.00;;
27025;SDS011;14565;48.626;8.978;2022-10-23T03:26:06;8.18;;;2.90;;
27025;SDS011;14565;48.626;8.978;2022-10-23T03:28:32;4.50;;;2.75;;
27025;SDS011;14565;48.626;8.978;2022-10-23T03:30:59;3.75;;;2.70;;
27025;SDS011;14565;48.626;8.978;2022-10-23T03:33:26;7.43;;;3.00;;
27025;SDS011;14565;48.626;8.978;2022-10-23T03:35:53;7.88;;;2.80;;
27025;SDS011;14565;48.626;8.978;2022-10-23T03:38:19;7.45;;;2.60;;
27025;SDS011;14565;48.626;8.978;2022-10-23T03:40:45;5.13;;;2.65;;
27025;SDS011;14565;48.626;8.978;2022-10-23T03:43:11;7.88;;;3.30;;
27025;SDS011;14565;48.626;8.978;2022-10-23T03:45:37;7.43;;;3.30;;
27025;SDS011;14565;48.626;8.978;2022-10-23T03:48:03;8.05;;;2.78;;
27025;SDS011;14565;48.626;8.978;2022-10-23T03:50:30;6.45;;;2.95;;
27025;SDS011;14565;48.626;8.978;2022-10-23T03:52:56;7.15;;;2.97;;
27025;SDS011;14565;48.626;8.978;2022-10-23T03:55:21;4.07;;;2.85;;
27025;SDS011;14565;48.626;8.978;2022-10-23T03:57:49;5.15;;;2.72;;
27025;SDS011;14565;48.626;8.978;2022-10-23T04:00:15;5.38;;;3.33;;
27025;SDS011;14565;48.626;8.978;2022-10-23T04:02:41;4.47;;;3.30;;
27025;SDS011;14565;48.626;8.978;2022-10-23T04:05:07;6.38;;;3.35;;
27025;SDS011;14565;48.626;8.978;2022-10-23T04:07:33;5.30;;;3.22;;
27025;SDS011;14565;48.626;8.978;2022-10-23T04:09:58;9.15;;;3.85;;
27025;SDS011;14565;48.626;8.978;2022-10-23T04:12:24;5.85;;;3.83;;
27025;SDS011;14565;48.626;8.978;2022-10-23T04:14:50;5.57;;;3.35;;
27025;SDS011;14565;48.626;8.978;2022-10-23T04:17:15;8.98;;;3.08;;
27025;SDS011;14565;48.626;8.978;2022-10-23T04:19:41;5.55;;;3.45;;
27025;SDS011;14565;48.626;8.978;2022-10-23T04:22:07;6.10;;;3.55;;
27025;SDS011;14565;48.626;8.978;2022-10-23T04:24:32;8.23;;;4.35;;
27025;SDS011;14565;48.626;8.978;2022-10-23T04:26:58;7.75;;;4.07;;
27025;SDS011;14565;48.626;8.978;2022-10-23T04:29:24;9.93;;;4.25;;
27025;SDS011;14565;48.626;8.978;2022-10-23T04:31:50;5.03;;;3.45;;
27025;SDS011;14565;48.626;8.978;2022-10-23T04:34:16;10.73;;;3.75;;
27025;SDS011;14565;48.626;8.978;2022-10-23T04:36:42;6.03;;;3.42;;
27025;SDS011;14565;48.626;8.978;2022-10-23T04:39:08;7.13;;;3.70;;
27025;SDS011;14565;48.626;8.978;2022-10-23T04:41:34;7.63;;;3.80;;
27025;SDS011;14565;48.626;8.978;2022-10-23T04:44:00;4.50;;;3.42;;
27025;SDS011;14565;48.626;8.978;2022-10-23T04:46:26;8.18;;;3.70;;
27025;SDS011;14565;48.626;8.978;2022-10-23T04:48:52;6.78;;;3.08;;
27025;SDS011;14565;48.626;8.978;2022-10-23T04:51:17;5.80;;;2.88;;
27025;SDS011;14565;48.626;8.978;2022-10-23T04:53:43;8.52;;;2.63;;
27025;SDS011;14565;48.626;8.978;2022-10-23T04:56:13;4.82;;;3.28;;
27025;SDS011;14565;48.626;8.978;2022-10-23T04:58:39;4.97;;;2.97;;
27025;SDS011;14565;48.626;8.978;2022-10-23T05:01:05;3.55;;;3.00;;
27025;SDS011;14565;48.626;8.978;2022-10-23T05:03:34;6.35;;;3.30;;
27025;SDS011;14565;48.626;8.978;2022-10-23T05:06:01;8.48;;;3.60;;
27025;SDS011;14565;48.626;8.978;2022-10-23T05:08:27;4.07;;;3.63;;
27025;SDS011;14565;48.626;8.978;2022-10-23T05:10:53;5.68;;;3.70;;
27025;SDS011;14565;48.626;8.978;2022-10-23T05:13:19;8.85;;;3.45;;
27025;SDS011;14565;48.626;8.978;2022-10-23T05:15:48;7.70;;;3.13;;
27025;SDS011;14565;48.626;8.978;2022-10-23T05:18:19;7.57;;;3.78;;
27025;SDS011;14565;48.626;8.978;2022-10-23T05:20:49;6.82;;;3.85;;
27025;SDS011;14565;48.626;8.978;2022-10-23T05:23:19;11.32;;;4.20;;
27025;SDS011;14565;48.626;8.978;2022-10-23T05:25:48;5.68;;;3.47;;
27025;SDS011;14565;48.626;8.978;2022-10-23T05:28:13;5.72;;;3.42;;
27025;SDS011;14565;48.626;8.978;2022-10-23T05:30:39;5.32;;;3.40;;
27025;SDS011;14565;48.626;8.978;2022-10-23T05:33:05;7.50;;;3.60;;
27025;SDS011;14565;48.626;8.978;2022-10-23T05:35:31;6.35;;;3.50;;
27025;SDS011;14565;48.626;8.978;2022-10-23T05:37:58;7.55;;;2.30;;
27025;SDS011;14565;48.626;8.978;2022-10-23T05:42:51;7.00;;;2.78;;
27025;SDS011;14565;48.626;8.978;2022-10-23T05:45:16;4.88;;;2.42;;
27025;SDS011;14565;48.626;8.978;2022-10-23T05:47:43;6.30;;;2.85;;
27025;SDS011;14565;48.626;8.978;2022-10-23T05:50:09;4.35;;;2.80;;
27025;SDS011;14565;48.626;8.978;2022-10-23T05:52:35;5.78;;;2.30;;
27025;SDS011;14565;48.626;8.978;2022-10-23T05:55:00;6.57;;;2.58;;
27025;SDS011;14565;48.626;8.978;2022-10-23T05:57:26;6.47;;;2.90;;
27025;SDS011;14565;48.626;8.978;2022-10-23T05:59:52;5.18;;;3.22;;
27025;SDS011;14565;48.626;8.978;2022-10-23T06:02:18;9.57;;;4.68;;
27025;SDS011;14565;48.626;8.978;2022-10-23T06:04:43;8.52;;;4.00;;
27025;SDS011;14565;48.626;8.978;2022-10-23T06:07:09;75.72;;;36.95;;
27025;SDS011;14565;48.626;8.978;2022-10-23T06:09:35;37.50;;;22.52;;
27025;SDS011;14565;48.626;8.978;2022-10-23T06:12:01;22.42;;;14.15;;
27025;SDS011;14565;48.626;8.978;2022-10-23T06:14:27;17.23;;;7.85;;
27025;SDS011;14565;48.626;8.978;2022-10-23T06:16:52;8.75;;;3.70;;
27025;SDS011;14565;48.626;8.978;2022-10-23T06:19:18;7.43;;;2.78;;
27025;SDS011;14565;48.626;8.978;2022-10-23T06:21:44;10.65;;;4.50;;
27025;SDS011;14565;48.626;8.978;2022-10-23T06:24:09;10.52;;;4.30;;
27025;SDS011;14565;48.626;8.978;2022-10-23T06:26:35;15.30;;;5.63;;
27025;SDS011;14565;48.626;8.978;2022-10-23T06:29:01;12.48;;;7.55;;
27025;SDS011;14565;48.626;8.978;2022-10-23T06:31:27;19.80;;;10.02;;
27025;SDS011;14565;48.626;8.978;2022-10-23T06:33:56;24.63;;;13.75;;
27025;SDS011;14565;48.626;8.978;2022-10-23T06:36:23;16.67;;;9.07;;
27025;SDS011;14565;48.626;8.978;2022-10-23T06:38:49;10.15;;;6.03;;
27025;SDS011;14565;48.626;8.978;2022-10-23T06:41:17;10.82;;;6.93;;
27025;SDS011;14565;48.626;8.978;2022-10-23T06:43:50;12.48;;;7.20;;
27025;SDS011;14565;48.626;8.978;2022-10-23T06:46:19;14.05;;;8.60;;
27025;SDS011;14565;48.626;8.978;2022-10-23T06:48:45;15.60;;;9.52;;
27025;SDS011;14565;48.626;8.978;2022-10-23T06:51:12;11.35;;;7.78;;
27025;SDS011;14565;48.626;8.978;2022-10-23T06:53:41;20.88;;;14.02;;
27025;SDS011;14565;48.626;8.978;2022-10-23T06:56:07;13.40;;;7.95;;
27025;SDS011;14565;48.626;8.978;2022-10-23T06:58:34;5.13;;;2.22;;
27025;SDS011;14565;48.626;8.978;2022-10-23T07:01:01;5.97;;;1.90;;
27025;SDS011;14565;48.626;8.978;2022-10-23T07:03:28;2.40;;;1.33;;
27025;SDS011;14565;48.626;8.978;2022-10-23T07:05:54;5.75;;;1.50;;
27025;SDS011;14565;48.626;8.978;2022-10-23T07:08:23;12.85;;;1.83;;
27025;SDS011;14565;48.626;8.978;2022-10-23T07:10:49;2.75;;;1.40;;
27025;SDS011;14565;48.626;8.978;2022-10-23T07:13:15;3.03;;;1.30;;
27025;SDS011;14565;48.626;8.978;2022-10-23T07:15:40;2.90;;;1.50;;
27025;SDS011;14565;48.626;8.978;2022-10-23T07:18:06;4.80;;;3.08;;
27025;SDS011;14565;48.626;8.978;2022-10-23T07:20:38;10.80;;;4.47;;
27025;SDS011;14565;48.626;8.978;2022-10-23T07:23:07;7.72;;;2.78;;
27025;SDS011;14565;48.626;8.978;2022-10-23T07:25:35;7.47;;;1.77;;
27025;SDS011;14565;48.626;8.978;2022-10-23T07:28:02;2.15;;;1.35;;
27025;SDS011;14565;48.626;8.978;2022-10-23T07:30:28;6.35;;;2.03;;
27025;SDS011;14565;48.626;8.978;2022-10-23T07:32:53;11.68;;;3.80;;
27025;SDS011;14565;48.626;8.978;2022-10-23T07:35:19;5.00;;;3.97;;
27025;SDS011;14565;48.626;8.978;2022-10-23T07:37:45;2.67;;;1.38;;
27025;SDS011;14565;48.626;8.978;2022-10-23T07:40:11;6.20;;;1.98;;
27025;SDS011;14565;48.626;8.978;2022-10-23T07:42:37;6.07;;;2.20;;
27025;SDS011;14565;48.626;8.978;2022-10-23T07:45:03;10.50;;;1.80;;
27025;SDS011;14565;48.626;8.978;2022-10-23T07:47:31;6.57;;;2.42;;
27025;SDS011;14565;48.626;8.978;2022-10-23T07:49:57;4.57;;;2.10;;
27025;SDS011;14565;48.626;8.978;2022-10-23T07:52:23;3.92;;;1.70;;
27025;SDS011;14565;48.626;8.978;2022-10-23T07:54:51;5.10;;;1.77;;
27025;SDS011;14565;48.626;8.978;2022-10-23T07:57:18;4.47;;;1.90;;
27025;SDS011;14565;48.626;8.978;2022-10-23T07:59:44;4.05;;;1.80;;
27025;SDS011;14565;48.626;8.978;2022-10-23T08:02:10;2.65;;;1.23;;
27025;SDS011;14565;48.626;8.978;2022-10-23T08:04:37;4.47;;;1.20;;
27025;SDS011;14565;48.626;8.978;2022-10-23T08:07:03;6.95;;;1.40;;
27025;SDS011;14565;48.626;8.978;2022-10-23T08:09:29;1.77;;;1.17;;
27025;SDS011;14565;48.626;8.978;2022-10-23T08:11:55;2.85;;;1.52;;
27025;SDS011;14565;48.626;8.978;2022-10-23T08:14:20;5.30;;;1.38;;
27025;SDS011;14565;48.626;8.978;2022-10-23T08:16:46;7.47;;;1.10;;
27025;SDS011;14565;48.626;8.978;2022-10-23T08:19:12;3.08;;;1.00;;
27025;SDS011;14565;48.626;8.978;2022-10-23T08:21:37;2.58;;;1.00;;
27025;SDS011;14565;48.626;8.978;2022-10-23T08:24:03;3.97;;;1.10;;
27025;SDS011;14565;48.626;8.978;2022-10-23T08:26:30;3.50;;;1.10;;
27025;SDS011;14565;48.626;8.978;2022-10-23T08:28:59;1.58;;;1.00;;
27025;SDS011;14565;48.626;8.978;2022-10-23T08:31:40;4.60;;;1.00;;
27025;SDS011;14565;48.626;8.978;2022-10-23T08:34:05;2.80;;;0.90;;
27025;SDS011;14565;48.626;8.978;2022-10-23T08:36:31;2.45;;;0.80;;
27025;SDS011;14565;48.626;8.978;2022-10-23T08:38:57;1.65;;;0.80;;
27025;SDS011;14565;48.626;8.978;2022-10-23T08:43:59;5.00;;;1.02;;
27025;SDS011;14565;48.626;8.978;2022-10-23T08:46:36;4.63;;;1.30;;
27025;SDS011;14565;48.626;8.978;2022-10-23T08:52:24;3.47;;;0.90;;
27025;SDS011;14565;48.626;8.978;2022-10-23T08:55:15;1.30;;;1.02;;
27025;SDS011;14565;48.626;8.978;2022-10-23T08:57:56;2.45;;;0.90;;
27025;SDS011;14565;48.626;8.978;2022-10-23T09:00:22;0.90;;;0.80;;
27025;SDS011;14565;48.626;8.978;2022-10-23T09:02:51;2.35;;;0.80;;
27025;SDS011;14565;48.626;8.978;2022-10-23T09:05:24;1.38;;;0.70;;
27025;SDS011;14565;48.626;8.978;2022-10-23T09:19:09;2.50;;;0.60;;
27025;SDS011;14565;48.626;8.978;2022-10-23T09:21:39;0.80;;;0.55;;
27025;SDS011;14565;48.626;8.978;2022-10-23T09:24:05;0.63;;;0.50;;
27025;SDS011;14565;48.626;8.978;2022-10-23T09:26:35;1.38;;;0.68;;
27025;SDS011;14565;48.626;8.978;2022-10-23T09:31:53;0.85;;;0.60;;
27025;SDS011;14565;48.626;8.978;2022-10-23T09:34:24;0.77;;;0.50;;
27025;SDS011;14565;48.626;8.978;2022-10-23T09:36:53;0.85;;;0.60;;
27025;SDS011;14565;48.626;8.978;2022-10-23T09:42:24;1.00;;;0.90;;
27025;SDS011;14565;48.626;8.978;2022-10-23T09:44:52;1.33;;;0.60;;
27025;SDS011;14565;48.626;8.978;2022-10-23T09:47:19;1.05;;;0.65;;
27025;SDS011;14565;48.626;8.978;2022-10-23T09:49:57;2.25;;;0.73;;
27025;SDS011;14565;48.626;8.978;2022-10-23T09:55:02;2.65;;;0.60;;
27025;SDS011;14565;48.626;8.978;2022-10-23T09:57:44;3.63;;;0.60;;
27025;SDS011;14565;48.626;8.978;2022-10-23T10:02:40;2.45;;;0.60;;
27025;SDS011;14565;48.626;8.978;2022-10-23T10:10:27;0.90;;;0.65;;
27025;SDS011;14565;48.626;8.978;2022-10-23T10:13:06;2.03;;;0.50;;
27025;SDS011;14565;48.626;8.978;2022-10-23T10:15:49;2.03;;;0.80;;
27025;SDS011;14565;48.626;8.978;2022-10-23T10:23:40;2.58;;;0.43;;
27025;SDS011;14565;48.626;8.978;2022-10-23T10:28:58;1.70;;;0.70;;
27025;SDS011;14565;48.626;8.978;2022-10-23T10:37:16;1.13;;;0.55;;
27025;SDS011;14565;48.626;8.978;2022-10-23T10:45:29;1.20;;;0.50;;
27025;SDS011;14565;48.626;8.978;2022-10-23T10:50:54;0.75;;;0.50;;
27025;SDS011;14565;48.626;8.978;2022-10-23T10:53:36;1.00;;;0.50;;
27025;SDS011;14565;48.626;8.978;2022-10-23T10:56:17;1.92;;;0.60;;
27025;SDS011;14565;48.626;8.978;2022-10-23T11:01:22;0.73;;;0.50;;
27025;SDS011;14565;48.626;8.978;2022-10-23T11:04:05;0.50;;;0.50;;
27025;SDS011;14565;48.626;8.978;2022-10-23T11:06:38;4.95;;;0.70;;
27025;SDS011;14565;48.626;8.978;2022-10-23T11:09:15;0.80;;;0.60;;
27025;SDS011;14565;48.626;8.978;2022-10-23T11:11:44;0.82;;;0.60;;
27025;SDS011;14565;48.626;8.978;2022-10-23T11:14:15;0.65;;;0.50;;
27025;SDS011;14565;48.626;8.978;2022-10-23T11:16:47;2.17;;;0.50;;
27025;SDS011;14565;48.626;8.978;2022-10-23T11:19:25;1.83;;;0.50;;
27025;SDS011;14565;48.626;8.978;2022-10-23T11:38:12;2.50;;;0.70;;
27025;SDS011;14565;48.626;8.978;2022-10-23T11:40:52;0.70;;;0.57;;
27025;SDS011;14565;48.626;8.978;2022-10-23T11:43:34;1.98;;;0.50;;
27025;SDS011;14565;48.626;8.978;2022-10-23T11:46:14;2.15;;;0.50;;
27025;SDS011;14565;48.626;8.978;2022-10-23T11:48:56;0.60;;;0.47;;
27025;SDS011;14565;48.626;8.978;2022-10-23T11:51:26;2.45;;;0.50;;
27025;SDS011;14565;48.626;8.978;2022-10-23T12:05:34;2.15;;;0.60;;
27025;SDS011;14565;48.626;8.978;2022-10-23T12:08:05;0.82;;;0.60;;
27025;SDS011;14565;48.626;8.978;2022-10-23T12:10:43;3.47;;;0.60;;
27025;SDS011;14565;48.626;8.978;2022-10-23T12:16:01;3.28;;;0.60;;
27025;SDS011;14565;48.626;8.978;2022-10-23T12:18:29;2.33;;;0.70;;
27025;SDS011;14565;48.626;8.978;2022-10-23T12:20:59;1.27;;;0.73;;
27025;SDS011;14565;48.626;8.978;2022-10-23T12:26:16;1.10;;;0.70;;
27025;SDS011;14565;48.626;8.978;2022-10-23T12:29:00;3.45;;;0.60;;
27025;SDS011;14565;48.626;8.978;2022-10-23T12:34:23;2.15;;;0.75;;
27025;SDS011;14565;48.626;8.978;2022-10-23T12:39:32;3.25;;;0.57;;
27025;SDS011;14565;48.626;8.978;2022-10-23T12:42:03;3.38;;;0.68;;
27025;SDS011;14565;48.626;8.978;2022-10-23T12:44:35;0.77;;;0.55;;
27025;SDS011;14565;48.626;8.978;2022-10-23T12:47:01;3.05;;;0.63;;
27025;SDS011;14565;48.626;8.978;2022-10-23T12:49:29;2.78;;;0.75;;
27025;SDS011;14565;48.626;8.978;2022-10-23T12:54:29;4.97;;;0.70;;
27025;SDS011;14565;48.626;8.978;2022-10-23T12:56:56;3.22;;;0.60;;
27025;SDS011;14565;48.626;8.978;2022-10-23T12:59:23;1.50;;;0.60;;
27025;SDS011;14565;48.626;8.978;2022-10-23T13:04:45;2.92;;;0.55;;
27025;SDS011;14565;48.626;8.978;2022-10-23T13:07:14;1.15;;;0.68;;
27025;SDS011;14565;48.626;8.978;2022-10-23T13:09:44;2.15;;;0.70;;
27025;SDS011;14565;48.626;8.978;2022-10-23T13:12:32;4.57;;;0.80;;
27025;SDS011;14565;48.626;8.978;2022-10-23T13:15:13;0.80;;;0.80;;
27025;SDS011;14565;48.626;8.978;2022-10-23T13:20:30;3.88;;;0.70;;
27025;SDS011;14565;48.626;8.978;2022-10-23T13:26:05;1.25;;;0.60;;
27025;SDS011;14565;48.626;8.978;2022-10-23T13:28:47;2.38;;;0.70;;
27025;SDS011;14565;48.626;8.978;2022-10-23T13:33:39;1.80;;;0.70;;
27025;SDS011;14565;48.626;8.978;2022-10-23T13:38:39;1.05;;;0.60;;
27025;SDS011;14565;48.626;8.978;2022-10-23T13:41:13;1.77;;;0.70;;
27025;SDS011;14565;48.626;8.978;2022-10-23T13:43:41;3.70;;;0.60;;
27025;SDS011;14565;48.626;8.978;2022-10-23T13:48:42;1.45;;;0.60;;
27025;SDS011;14565;48.626;8.978;2022-10-23T13:53:41;1.20;;;0.73;;
27025;SDS011;14565;48.626;8.978;2022-10-23T13:56:08;4.90;;;1.00;;
27025;SDS011;14565;48.626;8.978;2022-10-23T13:58:36;1.92;;;0.70;;
27025;SDS011;14565;48.626;8.978;2022-10-23T14:01:02;1.80;;;0.60;;
27025;SDS011;14565;48.626;8.978;2022-10-23T14:03:28;1.77;;;0.80;;
27025;SDS011;14565;48.626;8.978;2022-10-23T14:05:54;4.63;;;0.90;;
27025;SDS011;14565;48.626;8.978;2022-10-23T14:08:20;3.70;;;3.40;;
27025;SDS011;14565;48.626;8.978;2022-10-23T14:10:45;21.45;;;19.38;;
27025;SDS011;14565;48.626;8.978;2022-10-23T14:13:11;11.30;;;10.25;;
27025;SDS011;14565;48.626;8.978;2022-10-23T14:15:37;6.07;;;4.80;;
27025;SDS011;14565;48.626;8.978;2022-10-23T14:18:03;2.63;;;2.42;;
27025;SDS011;14565;48.626;8.978;2022-10-23T14:20:28;4.00;;;1.75;;
27025;SDS011;14565;48.626;8.978;2022-10-23T14:22:54;3.03;;;0.98;;
27025;SDS011;14565;48.626;8.978;2022-10-23T14:25:20;2.60;;;0.80;;
27025;SDS011;14565;48.626;8.978;2022-10-23T14:27:46;3.35;;;0.82;;
27025;SDS011;14565;48.626;8.978;2022-10-23T14:30:12;1.10;;;0.80;;
27025;SDS011;14565;48.626;8.978;2022-10-23T14:32:38;4.47;;;0.70;;
27025;SDS011;14565;48.626;8.978;2022-10-23T14:35:03;1.95;;;0.70;;
27025;SDS011;14565;48.626;8.978;2022-10-23T14:37:30;3.17;;;1.15;;
27025;SDS011;14565;48.626;8.978;2022-10-23T14:39:57;3.78;;;0.70;;
27025;SDS011;14565;48.626;8.978;2022-10-23T14:42:23;1.10;;;0.68;;
27025;SDS011;14565;48.626;8.978;2022-10-23T14:44:50;4.15;;;0.80;;
27025;SDS011;14565;48.626;8.978;2022-10-23T14:47:16;3.72;;;0.70;;
27025;SDS011;14565;48.626;8.978;2022-10-23T14:49:48;1.63;;;0.73;;
27025;SDS011;14565;48.626;8.978;2022-10-23T14:52:16;2.00;;;0.77;;
27025;SDS011;14565;48.626;8.978;2022-10-23T14:54:42;1.10;;;0.80;;
27025;SDS011;14565;48.626;8.978;2022-10-23T14:57:08;3.05;;;0.80;;
27025;SDS011;14565;48.626;8.978;2022-10-23T14:59:33;0.98;;;0.80;;
27025;SDS011;14565;48.626;8.978;2022-10-23T15:01:59;1.70;;;0.85;;
27025;SDS011;14565;48.626;8.978;2022-10-23T15:04:25;2.15;;;0.80;;
27025;SDS011;14565;48.626;8.978;2022-10-23T15:06:50;2.08;;;0.88;;
27025;SDS011;14565;48.626;8.978;2022-10-23T15:09:16;4.18;;;1.00;;
27025;SDS011;14565;48.626;8.978;2022-10-23T15:11:45;0.93;;;0.70;;
27025;SDS011;14565;48.626;8.978;2022-10-23T15:14:12;6.13;;;0.90;;
27025;SDS011;14565;48.626;8.978;2022-10-23T15:16:38;5.57;;;1.05;;
27025;SDS011;14565;48.626;8.978;2022-10-23T15:19:10;2.45;;;0.90;;
27025;SDS011;14565;48.626;8.978;2022-10-23T15:21:37;3.55;;;0.88;;
27025;SDS011;14565;48.626;8.978;2022-10-23T15:24:03;3.13;;;0.80;;
27025;SDS011;14565;48.626;8.978;2022-10-23T15:26:29;7.15;;;1.02;;
27025;SDS011;14565;48.626;8.978;2022-10-23T15:28:58;3.63;;;0.75;;
27025;SDS011;14565;48.626;8.978;2022-10-23T15:33:54;1.25;;;0.80;;
27025;SDS011;14565;48.626;8.978;2022-10-23T15:36:21;1.60;;;1.00;;
27025;SDS011;14565;48.626;8.978;2022-10-23T15:38:47;4.55;;;0.90;;
27025;SDS011;14565;48.626;8.978;2022-10-23T15:41:14;6.53;;;0.90;;
27025;SDS011;14565;48.626;8.978;2022-10-23T15:43:42;2.58;;;1.00;;
27025;SDS011;14565;48.626;8.978;2022-10-23T15:46:08;2.85;;;0.90;;
27025;SDS011;14565;48.626;8.978;2022-10-23T15:48:33;2.97;;;0.90;;
27025;SDS011;14565;48.626;8.978;2022-10-23T15:50:59;9.40;;;0.88;;
27025;SDS011;14565;48.626;8.978;2022-10-23T15:53:25;2.95;;;1.10;;
27025;SDS011;14565;48.626;8.978;2022-10-23T15:55:50;1.42;;;1.00;;
27025;SDS011;14565;48.626;8.978;2022-10-23T15:58:16;2.40;;;1.10;;
27025;SDS011;14565;48.626;8.978;2022-10-23T16:00:42;3.40;;;1.00;;
27025;SDS011;14565;48.626;8.978;2022-10-23T16:03:07;2.50;;;0.98;;
27025;SDS011;14565;48.626;8.978;2022-10-23T16:05:34;3.13;;;0.90;;
27025;SDS011;14565;48.626;8.978;2022-10-23T16:08:00;7.03;;;1.50;;
27025;SDS011;14565;48.626;8.978;2022-10-23T16:10:26;1.88;;;0.80;;
27025;SDS011;14565;48.626;8.978;2022-10-23T16:12:52;1.90;;;1.13;;
27025;SDS011;14565;48.626;8.978;2022-10-23T16:15:17;2.47;;;1.27;;
27025;SDS011;14565;48.626;8.978;2022-10-23T16:17:43;8.38;;;1.58;;
27025;SDS011;14565;48.626;8.978;2022-10-23T16:20:09;2.25;;;0.90;;
27025;SDS011;14565;48.626;8.978;2022-10-23T16:22:35;2.22;;;0.85;;
27025;SDS011;14565;48.626;8.978;2022-10-23T16:25:01;2.17;;;0.90;;
27025;SDS011;14565;48.626;8.978;2022-10-23T16:27:26;1.73;;;0.90;;
27025;SDS011;14565;48.626;8.978;2022-10-23T16:29:52;4.88;;;0.93;;
27025;SDS011;14565;48.626;8.978;2022-10-23T16:32:18;1.05;;;0.95;;
27025;SDS011;14565;48.626;8.978;2022-10-23T16:34:44;4.38;;;1.10;;
27025;SDS011;14565;48.626;8.978;2022-10-23T16:37:09;1.65;;;0.80;;
27025;SDS011;14565;48.626;8.978;2022-10-23T16:39:35;3.70;;;1.08;;
27025;SDS011;14565;48.626;8.978;2022-10-23T16:42:02;3.85;;;0.90;;
27025;SDS011;14565;48.626;8.978;2022-10-23T16:44:28;2.17;;;1.08;;
27025;SDS011;14565;48.626;8.978;2022-10-23T16:46:54;3.95;;;1.00;;
27025;SDS011;14565;48.626;8.978;2022-10-23T16:49:23;3.42;;;1.25;;
27025;SDS011;14565;48.626;8.978;2022-10-23T16:51:48;5.15;;;1.42;;
27025;SDS011;14565;48.626;8.978;2022-10-23T16:54:14;4.68;;;1.02;;
27025;SDS011;14565;48.626;8.978;2022-10-23T16:56:41;5.63;;;1.47;;
27025;SDS011;14565;48.626;8.978;2022-10-23T16:59:08;4.32;;;1.30;;
27025;SDS011;14565;48.626;8.978;2022-10-23T17:01:34;7.07;;;1.92;;
27025;SDS011;14565;48.626;8.978;2022-10-23T17:04:00;8.85;;;3.00;;
27025;SDS011;14565;48.626;8.978;2022-10-23T17:06:30;3.95;;;1.25;;
27025;SDS011;14565;48.626;8.978;2022-10-23T17:08:56;4.45;;;1.48;;
27025;SDS011;14565;48.626;8.978;2022-10-23T17:11:27;4.32;;;1.40;;
27025;SDS011;14565;48.626;8.978;2022-10-23T17:14:07;3.15;;;1.10;;
27025;SDS011;14565;48.626;8.978;2022-10-23T17:16:43;3.03;;;1.20;;
27025;SDS011;14565;48.626;8.978;2022-10-23T17:19:15;7.45;;;1.40;;
27025;SDS011;14565;48.626;8.978;2022-10-23T17:21:42;2.85;;;1.05;;
27025;SDS011;14565;48.626;8.978;2022-10-23T17:24:09;5.50;;;1.20;;
27025;SDS011;14565;48.626;8.978;2022-10-23T17:26:35;3.85;;;1.30;;
27025;SDS011;14565;48.626;8.978;2022-10-23T17:29:02;10.52;;;1.35;;
27025;SDS011;14565;48.626;8.978;2022-10-23T17:31:30;3.60;;;1.63;;
27025;SDS011;14565;48.626;8.978;2022-10-23T17:33:58;10.45;;;2.53;;
27025;SDS011;14565;48.626;8.978;2022-10-23T17:36:28;5.18;;;2.22;;